createdAt,value
2023-09-08T00:00:53.950Z,19.58
2023-09-08T00:03:22.964Z,19.61
2023-09-08T00:05:50.144Z,19.58
2023-09-08T00:08:18.947Z,19.56
2023-09-08T00:10:46.059Z,19.55
2023-09-08T00:13:13.144Z,19.54
2023-09-08T00:15:40.152Z,19.48
2023-09-08T00:18:07.329Z,19.35
2023-09-08T00:20:34.319Z,19.25
2023-09-08T00:23:01.244Z,19.30
2023-09-08T00:25:29.790Z,19.29
2023-09-08T00:27:56.745Z,19.27
2023-09-08T00:30:23.643Z,19.24
2023-09-08T00:32:50.704Z,19.20
2023-09-08T00:35:18.306Z,19.17
2023-09-08T00:37:45.314Z,19.20
2023-09-08T00:40:12.361Z,19.20
2023-09-08T00:42:40.894Z,19.22
2023-09-08T00:45:08.281Z,19.20
2023-09-08T00:47:36.224Z,19.12
2023-09-08T00:50:04.415Z,19.09
2023-09-08T00:52:33.603Z,19.08
2023-09-08T00:55:00.921Z,19.04
2023-09-08T00:57:28.035Z,19.00
2023-09-08T00:59:56.624Z,18.93
2023-09-08T01:02:23.820Z,18.85
2023-09-08T01:04:51.550Z,18.85
2023-09-08T01:07:21.696Z,18.86
2023-09-08T01:09:49.253Z,18.89
2023-09-08T01:12:17.130Z,18.84
2023-09-08T01:14:44.268Z,18.91
2023-09-08T01:17:13.667Z,18.94
2023-09-08T01:19:42.427Z,18.93
2023-09-08T01:22:31.163Z,18.92
2023-09-08T01:25:20.881Z,18.90
2023-09-08T01:27:50.908Z,18.94
2023-09-08T01:30:19.623Z,18.96
2023-09-08T01:32:49.460Z,18.95
2023-09-08T01:35:17.032Z,18.94
2023-09-08T01:37:47.210Z,18.94
2023-09-08T01:40:16.315Z,18.95
2023-09-08T01:42:43.841Z,18.96
2023-09-08T01:45:10.824Z,18.91
2023-09-08T01:47:38.579Z,18.87
2023-09-08T01:50:06.765Z,18.75
2023-09-08T01:52:33.770Z,18.63
2023-09-08T01:55:02.340Z,18.53
2023-09-08T01:57:31.109Z,18.47
2023-09-08T01:59:58.077Z,18.44
2023-09-08T02:02:26.039Z,18.37
2023-09-08T02:04:53.095Z,18.37
2023-09-08T02:07:20.265Z,18.35
2023-09-08T02:09:49.927Z,18.38
2023-09-08T02:12:17.164Z,18.40
2023-09-08T02:14:46.009Z,18.43
2023-09-08T02:17:14.293Z,18.41
2023-09-08T02:19:41.508Z,18.40
2023-09-08T02:22:10.339Z,18.32
2023-09-08T02:24:37.376Z,18.38
2023-09-08T02:27:05.002Z,18.44
2023-09-08T02:29:32.367Z,18.41
2023-09-08T02:32:00.673Z,18.41
2023-09-08T02:34:27.621Z,18.40
2023-09-08T02:36:55.160Z,18.41
2023-09-08T02:39:28.072Z,18.50
2023-09-08T02:41:56.031Z,18.51
2023-09-08T02:44:26.607Z,18.50
2023-09-08T02:46:53.908Z,18.48
2023-09-08T02:49:23.070Z,18.40
2023-09-08T02:51:50.035Z,18.34
2023-09-08T02:54:17.301Z,18.28
2023-09-08T02:56:44.288Z,18.17
2023-09-08T02:59:12.174Z,17.96
2023-09-08T03:01:39.192Z,17.96
2023-09-08T03:04:06.637Z,17.92
2023-09-08T03:06:36.209Z,17.84
2023-09-08T03:09:03.355Z,17.86
2023-09-08T03:11:30.830Z,17.87
2023-09-08T03:13:57.890Z,17.90
2023-09-08T03:16:24.862Z,18.00
2023-09-08T03:18:51.874Z,18.11
2023-09-08T03:21:18.864Z,18.13
2023-09-08T03:23:50.267Z,18.12
2023-09-08T03:26:17.457Z,18.22
2023-09-08T03:28:44.403Z,18.23
2023-09-08T03:31:11.629Z,18.25
2023-09-08T03:33:38.837Z,18.25
2023-09-08T03:36:08.366Z,18.26
2023-09-08T03:38:38.194Z,18.26
2023-09-08T03:41:07.747Z,18.25
2023-09-08T03:43:35.002Z,18.20
2023-09-08T03:46:02.766Z,18.23
2023-09-08T03:48:29.846Z,18.24
2023-09-08T03:50:56.958Z,18.24
2023-09-08T03:53:24.043Z,18.17
2023-09-08T03:55:51.663Z,18.14
2023-09-08T03:58:20.388Z,18.08
2023-09-08T04:00:49.703Z,18.00
2023-09-08T04:03:17.193Z,17.99
2023-09-08T04:05:44.528Z,17.98
2023-09-08T04:08:11.492Z,17.95
2023-09-08T04:10:38.505Z,17.87
2023-09-08T04:13:05.788Z,17.78
2023-09-08T04:15:35.229Z,17.75
2023-09-08T04:18:03.213Z,17.75
2023-09-08T04:20:30.304Z,17.63
2023-09-08T04:22:57.433Z,17.62
2023-09-08T04:25:26.105Z,17.58
2023-09-08T04:27:53.246Z,17.57
2023-09-08T04:30:20.334Z,17.57
2023-09-08T04:32:49.036Z,17.53
2023-09-08T04:35:16.175Z,17.54
2023-09-08T04:37:43.477Z,17.49
2023-09-08T04:40:11.295Z,17.51
2023-09-08T04:42:38.282Z,17.47
2023-09-08T04:45:07.183Z,17.46
2023-09-08T04:47:35.097Z,17.47
2023-09-08T04:50:03.600Z,17.53
2023-09-08T04:52:30.787Z,17.55
2023-09-08T04:54:57.759Z,17.58
2023-09-08T04:57:25.534Z,17.54
2023-09-08T04:59:56.934Z,17.56
2023-09-08T05:02:24.397Z,17.57
2023-09-08T05:04:51.842Z,17.58
2023-09-08T05:07:20.499Z,17.59
2023-09-08T05:09:48.613Z,17.65
2023-09-08T05:12:15.637Z,17.69
2023-09-08T05:14:43.051Z,17.67
2023-09-08T05:17:10.450Z,17.63
2023-09-08T05:19:37.538Z,17.60
2023-09-08T05:22:06.684Z,17.77
2023-09-08T05:24:35.425Z,17.84
2023-09-08T05:27:02.432Z,17.96
2023-09-08T05:29:29.349Z,17.97
2023-09-08T05:31:56.557Z,18.14
2023-09-08T05:34:24.425Z,18.34
2023-09-08T05:36:51.881Z,18.66
2023-09-08T05:39:20.348Z,18.83
2023-09-08T05:41:49.282Z,18.86
2023-09-08T05:44:16.687Z,18.89
2023-09-08T05:46:43.884Z,18.96
2023-09-08T05:49:11.268Z,19.07
2023-09-08T05:51:38.415Z,19.27
2023-09-08T05:54:06.707Z,19.49
2023-09-08T05:56:35.149Z,19.50
2023-09-08T05:59:03.846Z,19.43
2023-09-08T06:01:32.340Z,19.62
2023-09-08T06:04:00.457Z,19.80
2023-09-08T06:06:30.222Z,19.76
2023-09-08T06:08:57.248Z,20.29
2023-09-08T06:11:24.662Z,20.98
2023-09-08T06:13:51.663Z,21.63
2023-09-08T06:16:20.117Z,22.12
2023-09-08T06:18:48.082Z,22.39
2023-09-08T06:21:18.686Z,22.46
2023-09-08T06:23:45.927Z,22.88
2023-09-08T06:26:14.633Z,23.15
2023-09-08T06:28:44.402Z,23.40
2023-09-08T06:31:11.432Z,23.59
2023-09-08T06:33:42.080Z,23.82
2023-09-08T06:36:09.121Z,24.15
2023-09-08T06:38:36.482Z,24.44
2023-09-08T06:41:10.642Z,24.66
2023-09-08T06:43:37.786Z,24.90
2023-09-08T06:46:10.099Z,25.01
2023-09-08T06:48:38.322Z,25.25
2023-09-08T06:51:07.465Z,25.49
2023-09-08T06:53:35.290Z,25.50
2023-09-08T06:56:02.356Z,25.90
2023-09-08T06:58:30.422Z,26.36
2023-09-08T07:00:57.876Z,26.62
2023-09-08T07:03:27.868Z,26.64
2023-09-08T07:05:56.063Z,26.86
2023-09-08T07:08:25.757Z,27.08
2023-09-08T07:10:54.606Z,27.12
2023-09-08T07:13:21.727Z,27.21
2023-09-08T07:15:48.778Z,27.34
2023-09-08T07:18:16.105Z,27.34
2023-09-08T07:20:47.901Z,27.52
2023-09-08T07:23:15.851Z,27.60
2023-09-08T07:25:47.820Z,27.48
2023-09-08T07:28:15.754Z,27.44
2023-09-08T07:30:43.702Z,27.43
2023-09-08T07:33:11.693Z,27.62
2023-09-08T07:35:40.324Z,27.46
2023-09-08T07:38:08.168Z,27.43
2023-09-08T07:40:35.722Z,27.26
2023-09-08T07:43:04.567Z,27.41
2023-09-08T07:45:31.654Z,27.48
2023-09-08T07:47:58.637Z,27.57
2023-09-08T07:50:28.099Z,27.60
2023-09-08T07:52:57.388Z,27.81
2023-09-08T07:55:28.375Z,27.93
2023-09-08T07:57:56.279Z,27.97
2023-09-08T08:00:24.908Z,27.93
2023-09-08T08:02:55.525Z,27.66
2023-09-08T08:05:23.035Z,27.22
2023-09-08T08:07:50.065Z,27.35
2023-09-08T08:10:17.079Z,27.55
2023-09-08T08:12:44.831Z,27.59
2023-09-08T08:15:12.274Z,27.68
2023-09-08T08:17:41.288Z,27.91
2023-09-08T08:20:10.872Z,28.11
2023-09-08T08:22:38.206Z,28.25
2023-09-08T08:25:06.251Z,28.32
2023-09-08T08:27:33.411Z,28.27
2023-09-08T08:30:02.510Z,28.29
2023-09-08T08:32:30.135Z,28.41
2023-09-08T08:34:58.580Z,28.51
2023-09-08T08:37:25.756Z,28.48
2023-09-08T08:39:53.853Z,28.47
2023-09-08T08:42:23.815Z,28.65
2023-09-08T08:44:51.651Z,28.77
2023-09-08T08:47:20.358Z,28.99
2023-09-08T08:49:50.036Z,29.04
2023-09-08T08:52:19.630Z,29.24
2023-09-08T08:54:47.395Z,29.37
2023-09-08T08:57:15.296Z,29.60
2023-09-08T08:59:45.234Z,29.67
2023-09-08T09:02:13.261Z,29.72
2023-09-08T09:04:40.727Z,29.80
2023-09-08T09:07:08.890Z,29.99
2023-09-08T09:09:37.159Z,30.16
2023-09-08T09:12:04.878Z,30.33
2023-09-08T09:14:34.546Z,30.27
2023-09-08T09:17:02.602Z,30.33
2023-09-08T09:19:31.646Z,30.55
2023-09-08T09:22:00.281Z,30.82
2023-09-08T09:24:33.936Z,31.04
2023-09-08T09:27:02.859Z,31.07
2023-09-08T09:29:30.638Z,30.70
2023-09-08T09:31:59.124Z,31.03
2023-09-08T09:34:26.356Z,31.33
2023-09-08T09:36:53.488Z,31.28
2023-09-08T09:39:21.773Z,31.46
2023-09-08T09:41:49.434Z,31.07
2023-09-08T09:44:18.001Z,31.59
2023-09-08T09:46:46.973Z,31.47
2023-09-08T09:49:15.161Z,31.97
2023-09-08T09:51:44.651Z,31.65
2023-09-08T09:54:12.637Z,31.94
2023-09-08T09:56:40.889Z,32.20
2023-09-08T09:59:10.442Z,32.40
2023-09-08T10:01:39.719Z,32.46
2023-09-08T10:04:07.533Z,32.59
2023-09-08T10:06:36.692Z,32.75
2023-09-08T10:09:06.127Z,32.80
2023-09-08T10:11:40.486Z,32.66
2023-09-08T10:14:12.359Z,32.86
2023-09-08T10:16:44.436Z,33.08
2023-09-08T10:19:12.497Z,33.31
2023-09-08T10:21:42.970Z,33.29
2023-09-08T10:24:16.539Z,33.31
2023-09-08T10:26:48.796Z,33.31
2023-09-08T10:29:16.052Z,33.46
2023-09-08T10:31:45.453Z,33.51
2023-09-08T10:34:12.974Z,33.45
2023-09-08T10:36:40.341Z,33.26
2023-09-08T10:39:32.914Z,33.25
2023-09-08T10:42:27.501Z,33.65
2023-09-08T10:44:59.599Z,34.00
2023-09-08T10:47:35.402Z,34.07
2023-09-08T10:50:02.733Z,33.89
2023-09-08T10:52:29.963Z,33.97
2023-09-08T10:54:57.705Z,34.17
2023-09-08T10:57:26.468Z,34.32
2023-09-08T10:59:57.092Z,34.35
2023-09-08T11:02:36.812Z,34.31
2023-09-08T11:05:06.065Z,34.25
2023-09-08T11:07:36.106Z,33.96
2023-09-08T11:10:03.135Z,34.03
2023-09-08T11:12:30.252Z,34.05
2023-09-08T11:14:57.249Z,34.32
2023-09-08T11:17:27.031Z,34.37
2023-09-08T11:19:55.767Z,34.41
2023-09-08T11:22:27.441Z,34.49
2023-09-08T11:24:58.127Z,34.44
2023-09-08T11:27:25.285Z,34.18
2023-09-08T11:29:52.266Z,34.27
2023-09-08T11:32:19.394Z,34.55
2023-09-08T11:34:46.360Z,34.59
2023-09-08T11:37:17.235Z,34.64
2023-09-08T11:39:45.472Z,34.78
2023-09-08T11:42:14.295Z,34.67
2023-09-08T11:44:42.353Z,34.63
2023-09-08T11:47:10.795Z,34.74
2023-09-08T11:49:38.627Z,34.66
2023-09-08T11:52:06.572Z,34.79
2023-09-08T11:54:36.330Z,34.89
2023-09-08T11:57:05.489Z,34.73
2023-09-08T11:59:34.292Z,34.69
2023-09-08T12:02:02.099Z,34.70
2023-09-08T12:04:29.047Z,34.70
2023-09-08T12:06:57.257Z,34.55
2023-09-08T12:09:24.918Z,34.66
2023-09-08T12:11:53.320Z,34.62
2023-09-08T12:14:20.194Z,34.59
2023-09-08T12:16:47.433Z,34.67
2023-09-08T12:19:31.637Z,34.81
2023-09-08T12:22:01.217Z,34.85
2023-09-08T12:25:00.143Z,34.89
2023-09-08T12:27:28.600Z,34.92
2023-09-08T12:29:56.679Z,34.83
2023-09-08T12:32:24.638Z,34.83
2023-09-08T12:34:52.230Z,34.57
2023-09-08T12:37:22.192Z,34.64
2023-09-08T12:39:49.409Z,34.67
2023-09-08T12:42:16.396Z,34.71
2023-09-08T12:44:45.100Z,34.72
2023-09-08T12:47:15.786Z,34.80
2023-09-08T12:49:42.574Z,34.82
2023-09-08T12:52:10.602Z,34.81
2023-09-08T12:54:37.646Z,35.04
2023-09-08T12:57:06.902Z,35.14
2023-09-08T12:59:34.182Z,35.06
2023-09-08T13:02:02.439Z,34.96
2023-09-08T13:04:29.372Z,34.97
2023-09-08T13:06:56.311Z,34.94
2023-09-08T13:09:26.217Z,34.93
2023-09-08T13:11:53.186Z,34.98
2023-09-08T13:14:20.090Z,34.93
2023-09-08T13:16:47.020Z,34.83
2023-09-08T13:19:15.407Z,34.87
2023-09-08T13:21:42.326Z,34.84
2023-09-08T13:24:10.166Z,34.93
2023-09-08T13:26:38.722Z,35.00
2023-09-08T13:29:06.909Z,35.09
2023-09-08T13:31:34.135Z,35.02
2023-09-08T13:34:01.278Z,34.81
2023-09-08T13:36:29.607Z,34.83
2023-09-08T13:38:56.735Z,34.70
2023-09-08T13:41:24.948Z,34.76
2023-09-08T13:43:51.860Z,34.67
2023-09-08T13:46:18.850Z,34.69
2023-09-08T13:48:46.495Z,34.67
2023-09-08T13:51:14.506Z,34.82
2023-09-08T13:53:47.351Z,34.69
2023-09-08T13:56:15.844Z,34.62
2023-09-08T13:58:50.099Z,34.67
2023-09-08T14:01:20.146Z,34.55
2023-09-08T14:06:21.243Z,34.48
2023-09-08T14:11:34.976Z,34.39
2023-09-08T14:14:11.069Z,34.42
2023-09-08T14:16:38.188Z,34.40
2023-09-08T14:19:06.242Z,34.39
2023-09-08T14:21:33.707Z,34.51
2023-09-08T14:24:02.175Z,34.49
2023-09-08T14:26:29.119Z,34.59
2023-09-08T14:28:56.129Z,34.58
2023-09-08T14:31:23.209Z,34.56
2023-09-08T14:33:50.364Z,34.33
2023-09-08T14:36:20.836Z,33.99
2023-09-08T14:38:48.303Z,33.66
2023-09-08T14:41:16.793Z,33.45
2023-09-08T14:43:43.868Z,33.27
2023-09-08T14:46:10.892Z,33.07
2023-09-08T14:48:37.977Z,33.03
2023-09-08T14:51:05.067Z,33.08
2023-09-08T14:53:32.847Z,32.96
2023-09-08T14:56:00.244Z,32.94
2023-09-08T14:58:33.058Z,32.95
2023-09-08T15:01:04.822Z,33.12
2023-09-08T15:03:32.866Z,33.20
2023-09-08T15:06:00.296Z,33.30
2023-09-08T15:08:27.477Z,33.42
2023-09-08T15:10:54.609Z,33.45
2023-09-08T15:13:23.807Z,33.54
2023-09-08T15:15:52.722Z,33.63
2023-09-08T15:18:23.765Z,33.63
2023-09-08T15:20:54.983Z,33.66
2023-09-08T15:23:22.472Z,33.61
2023-09-08T15:25:53.476Z,33.61
2023-09-08T15:28:21.391Z,33.59
2023-09-08T15:30:49.602Z,33.59
2023-09-08T15:33:19.027Z,33.56
2023-09-08T15:35:46.405Z,33.55
2023-09-08T15:38:14.081Z,33.46
2023-09-08T15:41:18.006Z,33.42
2023-09-08T15:43:48.142Z,33.38
2023-09-08T15:46:15.602Z,33.34
2023-09-08T15:48:44.121Z,33.28
2023-09-08T15:51:11.311Z,33.24
2023-09-08T15:53:39.036Z,33.11
2023-09-08T15:56:08.156Z,33.08
2023-09-08T15:58:35.479Z,32.99
2023-09-08T16:01:02.541Z,32.89
2023-09-08T16:03:29.876Z,32.90
2023-09-08T16:05:58.440Z,32.89
2023-09-08T16:08:25.533Z,32.78
2023-09-08T16:10:53.181Z,32.73
2023-09-08T16:13:20.940Z,32.79
2023-09-08T16:15:50.874Z,32.73
2023-09-08T16:18:18.835Z,32.64
2023-09-08T16:20:45.791Z,32.54
2023-09-08T16:23:14.065Z,32.46
2023-09-08T16:25:41.120Z,32.56
2023-09-08T16:28:08.297Z,32.48
2023-09-08T16:30:36.049Z,32.42
2023-09-08T16:33:03.354Z,32.39
2023-09-08T16:35:30.963Z,32.31
2023-09-08T16:37:57.919Z,32.34
2023-09-08T16:40:26.956Z,32.32
2023-09-08T16:42:53.951Z,32.23
2023-09-08T16:45:20.930Z,32.17
2023-09-08T16:47:47.878Z,32.13
2023-09-08T16:50:14.885Z,32.11
2023-09-08T16:52:41.913Z,32.03
2023-09-08T16:55:12.449Z,31.96
2023-09-08T16:57:41.223Z,31.84
2023-09-08T17:00:09.434Z,31.78
2023-09-08T17:02:36.813Z,31.70
2023-09-08T17:05:04.659Z,31.67
2023-09-08T17:07:31.665Z,31.59
2023-09-08T17:09:58.986Z,31.51
2023-09-08T17:12:27.416Z,31.45
2023-09-08T17:14:56.005Z,31.37
2023-09-08T17:17:23.246Z,31.28
2023-09-08T17:19:50.394Z,31.20
2023-09-08T17:22:17.573Z,31.16
2023-09-08T17:24:44.650Z,31.03
2023-09-08T17:27:11.648Z,31.00
2023-09-08T17:29:38.555Z,30.94
2023-09-08T17:32:07.165Z,30.88
2023-09-08T17:34:34.352Z,30.77
2023-09-08T17:37:01.535Z,30.66
2023-09-08T17:39:28.690Z,30.58
2023-09-08T17:41:55.777Z,30.46
2023-09-08T17:44:22.778Z,30.33
2023-09-08T17:46:50.465Z,30.15
2023-09-08T17:49:18.905Z,30.03
2023-09-08T17:51:45.834Z,29.89
2023-09-08T17:54:13.146Z,29.77
2023-09-08T17:56:41.119Z,29.56
2023-09-08T17:59:08.277Z,29.30
2023-09-08T18:01:38.057Z,29.07
2023-09-08T18:04:07.061Z,28.82
2023-09-08T18:06:35.668Z,28.60
2023-09-08T18:09:02.751Z,28.47
2023-09-08T18:11:29.904Z,28.36
2023-09-08T18:13:57.258Z,28.23
2023-09-08T18:16:24.659Z,28.10
2023-09-08T18:18:51.754Z,27.91
2023-09-08T18:21:18.650Z,27.73
2023-09-08T18:23:48.044Z,27.62
2023-09-08T18:26:17.498Z,27.45
2023-09-08T18:28:44.980Z,27.24
2023-09-08T18:31:12.699Z,27.03
2023-09-08T18:33:40.684Z,26.84
2023-09-08T18:36:08.141Z,26.71
2023-09-08T18:38:35.448Z,26.53
2023-09-08T18:41:03.916Z,26.23
2023-09-08T18:43:31.084Z,26.09
2023-09-08T18:45:58.022Z,26.09
2023-09-08T18:48:25.076Z,26.02
2023-09-08T18:50:52.399Z,25.86
2023-09-08T18:53:19.468Z,25.55
2023-09-08T18:55:47.016Z,25.49
2023-09-08T18:58:16.179Z,25.37
2023-09-08T19:00:44.863Z,25.15
2023-09-08T19:03:12.106Z,25.11
2023-09-08T19:05:41.151Z,25.03
2023-09-08T19:08:08.267Z,24.98
2023-09-08T19:10:35.417Z,24.91
2023-09-08T19:13:02.415Z,24.83
2023-09-08T19:15:30.857Z,24.71
2023-09-08T19:17:57.890Z,24.50
2023-09-08T19:20:25.008Z,24.38
2023-09-08T19:22:51.954Z,24.32
2023-09-08T19:25:18.961Z,24.24
2023-09-08T19:27:45.951Z,24.24
2023-09-08T19:30:13.595Z,24.28
2023-09-08T19:32:42.480Z,24.24
2023-09-08T19:35:10.047Z,24.31
2023-09-08T19:37:36.926Z,24.21
2023-09-08T19:40:04.819Z,24.17
2023-09-08T19:42:31.841Z,24.30
2023-09-08T19:44:58.765Z,24.22
2023-09-08T19:47:25.803Z,24.09
2023-09-08T19:49:54.096Z,23.90
2023-09-08T19:52:20.951Z,23.75
2023-09-08T19:54:48.351Z,23.34
2023-09-08T19:57:15.253Z,22.98
2023-09-08T19:59:42.440Z,22.91
2023-09-08T20:02:10.456Z,22.97
2023-09-08T20:04:37.682Z,23.20
2023-09-08T20:07:06.070Z,23.32
2023-09-08T20:09:33.239Z,23.19
2023-09-08T20:12:00.172Z,23.09
2023-09-08T20:14:29.855Z,23.05
2023-09-08T20:16:56.780Z,23.10
2023-09-08T20:19:23.896Z,23.14
2023-09-08T20:21:50.810Z,23.09
2023-09-08T20:24:19.492Z,23.08
2023-09-08T20:26:46.573Z,22.92
2023-09-08T20:29:14.005Z,22.75
2023-09-08T20:31:41.026Z,22.72
2023-09-08T20:34:07.943Z,22.75
2023-09-08T20:36:34.893Z,22.71
2023-09-08T20:39:01.840Z,22.74
2023-09-08T20:41:30.114Z,22.74
2023-09-08T20:43:57.047Z,22.51
2023-09-08T20:46:24.008Z,22.50
2023-09-08T20:48:51.427Z,22.41
2023-09-08T20:51:24.157Z,22.15
2023-09-08T20:53:51.109Z,22.01
2023-09-08T20:56:18.579Z,22.00
2023-09-08T20:58:47.165Z,21.90
2023-09-08T21:01:14.211Z,21.80
2023-09-08T21:03:41.354Z,21.74
2023-09-08T21:06:08.601Z,21.74
2023-09-08T21:08:35.566Z,21.65
2023-09-08T21:11:03.474Z,21.56
2023-09-08T21:13:30.730Z,21.53
2023-09-08T21:15:59.588Z,21.55
2023-09-08T21:18:26.597Z,21.53
2023-09-08T21:20:53.521Z,21.61
2023-09-08T21:23:20.553Z,21.82
2023-09-08T21:25:50.746Z,21.76
2023-09-08T21:28:17.799Z,21.64
2023-09-08T21:30:45.442Z,21.68
2023-09-08T21:33:14.390Z,21.65
2023-09-08T21:35:41.600Z,21.76
2023-09-08T21:38:08.525Z,21.61
2023-09-08T21:40:39.148Z,21.49
2023-09-08T21:43:06.160Z,21.42
2023-09-08T21:45:33.091Z,21.32
2023-09-08T21:48:00.000Z,21.22
2023-09-08T21:50:28.332Z,21.06
2023-09-08T21:52:55.287Z,20.94
2023-09-08T21:55:22.804Z,20.87
2023-09-08T21:57:50.047Z,21.05
2023-09-08T22:00:18.715Z,21.10
2023-09-08T22:02:45.815Z,21.09
2023-09-08T22:05:13.221Z,20.92
2023-09-08T22:07:41.726Z,21.07
2023-09-08T22:10:09.418Z,21.00
2023-09-08T22:12:36.461Z,20.85
2023-09-08T22:15:04.432Z,20.76
2023-09-08T22:17:33.059Z,20.63
2023-09-08T22:20:00.056Z,20.60
2023-09-08T22:22:26.937Z,20.54
2023-09-08T22:24:55.253Z,20.48
2023-09-08T22:27:22.374Z,20.37
2023-09-08T22:29:49.181Z,20.24
2023-09-08T22:32:16.111Z,19.98
2023-09-08T22:34:42.996Z,19.88
2023-09-08T22:37:10.193Z,19.89
2023-09-08T22:39:37.001Z,20.09
2023-09-08T22:42:05.809Z,20.23
2023-09-08T22:44:32.846Z,20.17
2023-09-08T22:46:59.936Z,20.25
2023-09-08T22:49:27.477Z,20.00
2023-09-08T22:51:54.957Z,19.87
2023-09-08T22:54:22.123Z,19.82
2023-09-08T22:56:49.082Z,19.84
2023-09-08T22:59:17.520Z,19.81
2023-09-08T23:01:44.444Z,19.85
2023-09-08T23:04:11.383Z,19.75
2023-09-08T23:06:38.314Z,19.91
2023-09-08T23:09:05.231Z,20.03
2023-09-08T23:11:32.438Z,20.06
2023-09-08T23:13:59.594Z,20.06
2023-09-08T23:16:28.058Z,20.02
2023-09-08T23:18:55.929Z,19.93
2023-09-08T23:21:22.904Z,19.86
2023-09-08T23:23:55.133Z,19.80
2023-09-08T23:26:24.938Z,19.80
2023-09-08T23:28:55.971Z,19.83
2023-09-08T23:31:23.206Z,19.72
2023-09-08T23:33:52.032Z,19.62
2023-09-08T23:36:18.938Z,19.51
2023-09-08T23:38:45.812Z,19.37
2023-09-08T23:41:12.854Z,19.45
2023-09-08T23:43:40.158Z,19.48
2023-09-08T23:46:07.457Z,19.49
2023-09-08T23:48:34.391Z,19.47
2023-09-08T23:51:02.757Z,19.45
2023-09-08T23:53:30.062Z,19.41
2023-09-08T23:55:57.177Z,19.45
2023-09-08T23:58:24.163Z,19.31
